sensor_id;sensor_type;location;lat;lon;timestamp;P1;durP1;ratioP1;P2;durP2;ratioP2
65753;SDS011;69207;47.502;18.940;2024-01-11T00:00:19;16.45;;;7.95;;
65753;SDS011;69207;47.502;18.940;2024-01-11T00:01:22;18.15;;;8.75;;
65753;SDS011;69207;47.502;18.940;2024-01-11T00:02:25;18.85;;;8.63;;
65753;SDS011;69207;47.502;18.940;2024-01-11T00:03:29;21.55;;;8.90;;
65753;SDS011;69207;47.502;18.940;2024-01-11T00:04:32;20.25;;;9.15;;
65753;SDS011;69207;47.502;18.940;2024-01-11T00:05:36;20.85;;;9.10;;
65753;SDS011;69207;47.502;18.940;2024-01-11T00:06:42;21.27;;;9.23;;
65753;SDS011;69207;47.502;18.940;2024-01-11T00:07:46;20.73;;;8.65;;
65753;SDS011;69207;47.502;18.940;2024-01-11T00:08:50;17.95;;;8.55;;
65753;SDS011;69207;47.502;18.940;2024-01-11T00:09:54;17.98;;;9.15;;
65753;SDS011;69207;47.502;18.940;2024-01-11T00:10:58;22.45;;;9.38;;
65753;SDS011;69207;47.502;18.940;2024-01-11T00:12:01;16.62;;;8.07;;
65753;SDS011;69207;47.502;18.940;2024-01-11T00:13:04;17.73;;;8.05;;
65753;SDS011;69207;47.502;18.940;2024-01-11T00:14:07;21.12;;;8.95;;
65753;SDS011;69207;47.502;18.940;2024-01-11T00:15:10;21.33;;;9.10;;
65753;SDS011;69207;47.502;18.940;2024-01-11T00:16:14;24.08;;;9.52;;
65753;SDS011;69207;47.502;18.940;2024-01-11T00:17:17;22.33;;;9.80;;
65753;SDS011;69207;47.502;18.940;2024-01-11T00:18:20;19.95;;;9.52;;
65753;SDS011;69207;47.502;18.940;2024-01-11T00:19:23;23.20;;;10.43;;
65753;SDS011;69207;47.502;18.940;2024-01-11T00:20:26;18.60;;;9.02;;
65753;SDS011;69207;47.502;18.940;2024-01-11T00:21:31;15.82;;;8.57;;
65753;SDS011;69207;47.502;18.940;2024-01-11T00:22:33;22.90;;;9.88;;
65753;SDS011;69207;47.502;18.940;2024-01-11T00:23:37;19.58;;;8.48;;
65753;SDS011;69207;47.502;18.940;2024-01-11T00:24:40;18.77;;;9.18;;
65753;SDS011;69207;47.502;18.940;2024-01-11T00:25:43;22.62;;;10.20;;
65753;SDS011;69207;47.502;18.940;2024-01-11T00:26:46;23.40;;;9.50;;
65753;SDS011;69207;47.502;18.940;2024-01-11T00:27:49;17.87;;;9.20;;
65753;SDS011;69207;47.502;18.940;2024-01-11T00:28:53;18.37;;;8.73;;
65753;SDS011;69207;47.502;18.940;2024-01-11T00:29:56;18.52;;;8.70;;
65753;SDS011;69207;47.502;18.940;2024-01-11T00:31:00;18.73;;;8.77;;
65753;SDS011;69207;47.502;18.940;2024-01-11T00:32:03;17.12;;;8.52;;
65753;SDS011;69207;47.502;18.940;2024-01-11T00:33:07;19.95;;;8.77;;
65753;SDS011;69207;47.502;18.940;2024-01-11T00:34:11;19.90;;;9.65;;
65753;SDS011;69207;47.502;18.940;2024-01-11T00:35:14;18.67;;;8.73;;
65753;SDS011;69207;47.502;18.940;2024-01-11T00:36:18;18.48;;;8.43;;
65753;SDS011;69207;47.502;18.940;2024-01-11T00:37:22;19.10;;;8.82;;
65753;SDS011;69207;47.502;18.940;2024-01-11T00:38:26;22.40;;;9.48;;
65753;SDS011;69207;47.502;18.940;2024-01-11T00:39:29;21.02;;;8.90;;
65753;SDS011;69207;47.502;18.940;2024-01-11T00:40:32;18.62;;;8.82;;
65753;SDS011;69207;47.502;18.940;2024-01-11T00:41:35;22.02;;;9.88;;
65753;SDS011;69207;47.502;18.940;2024-01-11T00:42:39;20.02;;;8.93;;
65753;SDS011;69207;47.502;18.940;2024-01-11T00:43:42;19.87;;;8.95;;
65753;SDS011;69207;47.502;18.940;2024-01-11T00:44:45;18.42;;;8.98;;
65753;SDS011;69207;47.502;18.940;2024-01-11T00:45:48;19.77;;;8.27;;
65753;SDS011;69207;47.502;18.940;2024-01-11T00:46:51;24.15;;;9.75;;
65753;SDS011;69207;47.502;18.940;2024-01-11T00:47:54;17.95;;;8.88;;
65753;SDS011;69207;47.502;18.940;2024-01-11T00:48:57;20.73;;;9.13;;
65753;SDS011;69207;47.502;18.940;2024-01-11T00:50:00;24.52;;;10.25;;
65753;SDS011;69207;47.502;18.940;2024-01-11T00:51:04;17.50;;;8.82;;
65753;SDS011;69207;47.502;18.940;2024-01-11T00:52:09;17.35;;;8.68;;
65753;SDS011;69207;47.502;18.940;2024-01-11T00:53:12;22.37;;;9.75;;
65753;SDS011;69207;47.502;18.940;2024-01-11T00:54:18;22.52;;;9.00;;
65753;SDS011;69207;47.502;18.940;2024-01-11T00:55:21;18.83;;;8.00;;
65753;SDS011;69207;47.502;18.940;2024-01-11T00:56:24;18.50;;;8.75;;
65753;SDS011;69207;47.502;18.940;2024-01-11T00:57:27;21.10;;;8.82;;
65753;SDS011;69207;47.502;18.940;2024-01-11T00:58:30;18.35;;;8.65;;
65753;SDS011;69207;47.502;18.940;2024-01-11T00:59:33;17.37;;;8.85;;
65753;SDS011;69207;47.502;18.940;2024-01-11T01:00:36;21.08;;;8.90;;
65753;SDS011;69207;47.502;18.940;2024-01-11T01:01:39;18.25;;;8.48;;
65753;SDS011;69207;47.502;18.940;2024-01-11T01:02:43;18.17;;;8.10;;
65753;SDS011;69207;47.502;18.940;2024-01-11T01:03:46;18.70;;;8.13;;
65753;SDS011;69207;47.502;18.940;2024-01-11T01:04:49;16.50;;;7.85;;
65753;SDS011;69207;47.502;18.940;2024-01-11T01:05:52;14.68;;;7.90;;
65753;SDS011;69207;47.502;18.940;2024-01-11T01:06:56;19.90;;;8.07;;
65753;SDS011;69207;47.502;18.940;2024-01-11T01:07:59;17.17;;;8.10;;
65753;SDS011;69207;47.502;18.940;2024-01-11T01:09:02;20.92;;;7.97;;
65753;SDS011;69207;47.502;18.940;2024-01-11T01:10:05;18.55;;;6.97;;
65753;SDS011;69207;47.502;18.940;2024-01-11T01:11:10;17.92;;;7.12;;
65753;SDS011;69207;47.502;18.940;2024-01-11T01:12:13;14.55;;;7.25;;
65753;SDS011;69207;47.502;18.940;2024-01-11T01:13:16;13.68;;;6.50;;
65753;SDS011;69207;47.502;18.940;2024-01-11T01:14:19;12.07;;;6.50;;
65753;SDS011;69207;47.502;18.940;2024-01-11T01:15:22;15.98;;;6.82;;
65753;SDS011;69207;47.502;18.940;2024-01-11T01:16:26;14.43;;;6.93;;
65753;SDS011;69207;47.502;18.940;2024-01-11T01:17:29;12.75;;;6.82;;
65753;SDS011;69207;47.502;18.940;2024-01-11T01:18:32;15.05;;;6.32;;
65753;SDS011;69207;47.502;18.940;2024-01-11T01:19:35;13.25;;;6.15;;
65753;SDS011;69207;47.502;18.940;2024-01-11T01:20:38;10.80;;;5.97;;
65753;SDS011;69207;47.502;18.940;2024-01-11T01:21:42;12.27;;;6.30;;
65753;SDS011;69207;47.502;18.940;2024-01-11T01:22:45;15.15;;;6.65;;
65753;SDS011;69207;47.502;18.940;2024-01-11T01:23:50;11.25;;;5.82;;
65753;SDS011;69207;47.502;18.940;2024-01-11T01:24:53;13.25;;;5.97;;
65753;SDS011;69207;47.502;18.940;2024-01-11T01:25:56;10.20;;;5.50;;
65753;SDS011;69207;47.502;18.940;2024-01-11T01:26:59;11.48;;;5.57;;
65753;SDS011;69207;47.502;18.940;2024-01-11T01:28:03;10.52;;;5.60;;
65753;SDS011;69207;47.502;18.940;2024-01-11T01:29:06;11.35;;;5.57;;
65753;SDS011;69207;47.502;18.940;2024-01-11T01:30:10;10.52;;;4.97;;
65753;SDS011;69207;47.502;18.940;2024-01-11T01:31:13;9.90;;;4.60;;
65753;SDS011;69207;47.502;18.940;2024-01-11T01:32:17;9.63;;;5.60;;
65753;SDS011;69207;47.502;18.940;2024-01-11T01:33:22;11.95;;;5.32;;
65753;SDS011;69207;47.502;18.940;2024-01-11T01:34:25;9.77;;;5.20;;
65753;SDS011;69207;47.502;18.940;2024-01-11T01:35:28;10.02;;;4.78;;
65753;SDS011;69207;47.502;18.940;2024-01-11T01:36:32;8.75;;;4.68;;
65753;SDS011;69207;47.502;18.940;2024-01-11T01:37:34;10.75;;;4.68;;
65753;SDS011;69207;47.502;18.940;2024-01-11T01:38:37;11.82;;;5.00;;
65753;SDS011;69207;47.502;18.940;2024-01-11T01:39:41;10.60;;;4.80;;
65753;SDS011;69207;47.502;18.940;2024-01-11T01:40:45;6.40;;;4.12;;
65753;SDS011;69207;47.502;18.940;2024-01-11T01:41:47;8.10;;;4.03;;
65753;SDS011;69207;47.502;18.940;2024-01-11T01:42:54;10.38;;;3.97;;
65753;SDS011;69207;47.502;18.940;2024-01-11T01:44:01;9.25;;;4.65;;
65753;SDS011;69207;47.502;18.940;2024-01-11T01:45:05;9.52;;;4.47;;
65753;SDS011;69207;47.502;18.940;2024-01-11T01:46:08;6.70;;;3.70;;
65753;SDS011;69207;47.502;18.940;2024-01-11T01:47:12;6.75;;;3.80;;
65753;SDS011;69207;47.502;18.940;2024-01-11T01:48:15;7.35;;;4.12;;
65753;SDS011;69207;47.502;18.940;2024-01-11T01:49:19;7.57;;;3.70;;
65753;SDS011;69207;47.502;18.940;2024-01-11T01:50:25;8.98;;;3.92;;
65753;SDS011;69207;47.502;18.940;2024-01-11T01:51:29;9.85;;;4.12;;
65753;SDS011;69207;47.502;18.940;2024-01-11T01:52:34;5.93;;;3.62;;
65753;SDS011;69207;47.502;18.940;2024-01-11T01:53:38;7.68;;;3.78;;
65753;SDS011;69207;47.502;18.940;2024-01-11T01:54:41;7.87;;;3.90;;
65753;SDS011;69207;47.502;18.940;2024-01-11T01:55:44;5.78;;;3.15;;
65753;SDS011;69207;47.502;18.940;2024-01-11T01:56:48;8.05;;;3.80;;
65753;SDS011;69207;47.502;18.940;2024-01-11T01:57:51;6.03;;;2.60;;
65753;SDS011;69207;47.502;18.940;2024-01-11T01:58:56;6.03;;;3.20;;
65753;SDS011;69207;47.502;18.940;2024-01-11T02:00:03;7.05;;;3.10;;
65753;SDS011;69207;47.502;18.940;2024-01-11T02:01:07;5.60;;;2.95;;
65753;SDS011;69207;47.502;18.940;2024-01-11T02:02:13;7.10;;;3.10;;
65753;SDS011;69207;47.502;18.940;2024-01-11T02:03:17;4.70;;;2.90;;
65753;SDS011;69207;47.502;18.940;2024-01-11T02:04:21;5.03;;;3.03;;
65753;SDS011;69207;47.502;18.940;2024-01-11T02:05:25;6.05;;;3.08;;
65753;SDS011;69207;47.502;18.940;2024-01-11T02:06:28;5.10;;;2.90;;
65753;SDS011;69207;47.502;18.940;2024-01-11T02:07:35;5.55;;;3.25;;
65753;SDS011;69207;47.502;18.940;2024-01-11T02:08:38;3.58;;;2.37;;
65753;SDS011;69207;47.502;18.940;2024-01-11T02:09:44;3.92;;;2.47;;
65753;SDS011;69207;47.502;18.940;2024-01-11T02:10:49;6.45;;;3.15;;
65753;SDS011;69207;47.502;18.940;2024-01-11T02:11:52;5.53;;;2.75;;
65753;SDS011;69207;47.502;18.940;2024-01-11T02:12:56;4.12;;;2.33;;
65753;SDS011;69207;47.502;18.940;2024-01-11T02:14:00;4.10;;;2.45;;
65753;SDS011;69207;47.502;18.940;2024-01-11T02:15:03;3.65;;;2.47;;
65753;SDS011;69207;47.502;18.940;2024-01-11T02:16:07;5.85;;;2.65;;
65753;SDS011;69207;47.502;18.940;2024-01-11T02:17:10;4.85;;;2.85;;
65753;SDS011;69207;47.502;18.940;2024-01-11T02:18:14;4.82;;;2.40;;
65753;SDS011;69207;47.502;18.940;2024-01-11T02:19:18;4.78;;;2.50;;
65753;SDS011;69207;47.502;18.940;2024-01-11T02:20:22;4.70;;;2.15;;
65753;SDS011;69207;47.502;18.940;2024-01-11T02:21:25;5.03;;;2.37;;
65753;SDS011;69207;47.502;18.940;2024-01-11T02:22:32;5.35;;;2.60;;
65753;SDS011;69207;47.502;18.940;2024-01-11T02:23:44;3.85;;;2.55;;
65753;SDS011;69207;47.502;18.940;2024-01-11T02:25:08;3.85;;;2.10;;
65753;SDS011;69207;47.502;18.940;2024-01-11T02:26:15;4.90;;;2.50;;
65753;SDS011;69207;47.502;18.940;2024-01-11T02:27:19;4.37;;;2.28;;
65753;SDS011;69207;47.502;18.940;2024-01-11T02:28:21;4.05;;;2.22;;
65753;SDS011;69207;47.502;18.940;2024-01-11T02:29:25;3.50;;;1.92;;
65753;SDS011;69207;47.502;18.940;2024-01-11T02:30:28;7.05;;;2.58;;
65753;SDS011;69207;47.502;18.940;2024-01-11T02:31:31;4.90;;;2.40;;
65753;SDS011;69207;47.502;18.940;2024-01-11T02:32:34;6.32;;;2.75;;
65753;SDS011;69207;47.502;18.940;2024-01-11T02:33:38;4.95;;;2.35;;
65753;SDS011;69207;47.502;18.940;2024-01-11T02:34:42;5.12;;;2.15;;
65753;SDS011;69207;47.502;18.940;2024-01-11T02:35:45;4.45;;;2.30;;
65753;SDS011;69207;47.502;18.940;2024-01-11T02:36:49;3.87;;;1.87;;
65753;SDS011;69207;47.502;18.940;2024-01-11T02:37:52;5.90;;;2.65;;
65753;SDS011;69207;47.502;18.940;2024-01-11T02:38:56;5.70;;;2.70;;
65753;SDS011;69207;47.502;18.940;2024-01-11T02:40:00;4.70;;;2.60;;
65753;SDS011;69207;47.502;18.940;2024-01-11T02:41:05;6.35;;;2.60;;
65753;SDS011;69207;47.502;18.940;2024-01-11T02:42:09;5.45;;;2.62;;
65753;SDS011;69207;47.502;18.940;2024-01-11T02:43:12;6.70;;;2.83;;
65753;SDS011;69207;47.502;18.940;2024-01-11T02:44:15;4.75;;;2.62;;
65753;SDS011;69207;47.502;18.940;2024-01-11T02:45:18;5.05;;;2.85;;
65753;SDS011;69207;47.502;18.940;2024-01-11T02:46:21;4.30;;;2.67;;
65753;SDS011;69207;47.502;18.940;2024-01-11T02:47:24;3.85;;;2.45;;
65753;SDS011;69207;47.502;18.940;2024-01-11T02:48:30;7.95;;;3.25;;
65753;SDS011;69207;47.502;18.940;2024-01-11T02:49:33;5.72;;;3.03;;
65753;SDS011;69207;47.502;18.940;2024-01-11T02:50:38;5.60;;;3.15;;
65753;SDS011;69207;47.502;18.940;2024-01-11T02:51:42;5.37;;;2.95;;
65753;SDS011;69207;47.502;18.940;2024-01-11T02:52:45;4.80;;;2.53;;
65753;SDS011;69207;47.502;18.940;2024-01-11T02:53:48;3.90;;;2.80;;
65753;SDS011;69207;47.502;18.940;2024-01-11T02:54:51;4.70;;;2.78;;
65753;SDS011;69207;47.502;18.940;2024-01-11T02:55:54;4.78;;;2.80;;
65753;SDS011;69207;47.502;18.940;2024-01-11T02:56:57;5.28;;;2.85;;
65753;SDS011;69207;47.502;18.940;2024-01-11T02:58:00;3.97;;;2.33;;
65753;SDS011;69207;47.502;18.940;2024-01-11T02:59:03;6.43;;;2.95;;
65753;SDS011;69207;47.502;18.940;2024-01-11T03:00:07;4.43;;;2.58;;
65753;SDS011;69207;47.502;18.940;2024-01-11T03:01:10;5.65;;;2.80;;
65753;SDS011;69207;47.502;18.940;2024-01-11T03:02:14;6.05;;;3.10;;
65753;SDS011;69207;47.502;18.940;2024-01-11T03:03:16;4.65;;;2.72;;
65753;SDS011;69207;47.502;18.940;2024-01-11T03:04:20;6.40;;;2.90;;
65753;SDS011;69207;47.502;18.940;2024-01-11T03:05:23;6.82;;;2.80;;
65753;SDS011;69207;47.502;18.940;2024-01-11T03:06:26;6.43;;;2.90;;
65753;SDS011;69207;47.502;18.940;2024-01-11T03:07:29;6.72;;;3.40;;
65753;SDS011;69207;47.502;18.940;2024-01-11T03:08:33;6.12;;;3.50;;
65753;SDS011;69207;47.502;18.940;2024-01-11T03:09:36;8.68;;;3.35;;
65753;SDS011;69207;47.502;18.940;2024-01-11T03:10:39;13.00;;;4.90;;
65753;SDS011;69207;47.502;18.940;2024-01-11T03:11:43;12.37;;;4.43;;
65753;SDS011;69207;47.502;18.940;2024-01-11T03:12:46;11.45;;;4.47;;
65753;SDS011;69207;47.502;18.940;2024-01-11T03:13:52;7.03;;;3.72;;
65753;SDS011;69207;47.502;18.940;2024-01-11T03:14:55;4.82;;;2.53;;
65753;SDS011;69207;47.502;18.940;2024-01-11T03:15:59;6.07;;;2.95;;
65753;SDS011;69207;47.502;18.940;2024-01-11T03:17:02;3.25;;;2.42;;
65753;SDS011;69207;47.502;18.940;2024-01-11T03:18:05;5.75;;;2.92;;
65753;SDS011;69207;47.502;18.940;2024-01-11T03:19:09;5.87;;;2.90;;
65753;SDS011;69207;47.502;18.940;2024-01-11T03:20:12;5.18;;;3.00;;
65753;SDS011;69207;47.502;18.940;2024-01-11T03:21:15;5.57;;;2.67;;
65753;SDS011;69207;47.502;18.940;2024-01-11T03:22:18;4.75;;;2.62;;
65753;SDS011;69207;47.502;18.940;2024-01-11T03:23:21;6.57;;;2.83;;
65753;SDS011;69207;47.502;18.940;2024-01-11T03:24:24;5.12;;;2.90;;
65753;SDS011;69207;47.502;18.940;2024-01-11T03:25:27;4.78;;;2.80;;
65753;SDS011;69207;47.502;18.940;2024-01-11T03:26:31;4.80;;;2.70;;
65753;SDS011;69207;47.502;18.940;2024-01-11T03:27:35;4.78;;;2.60;;
65753;SDS011;69207;47.502;18.940;2024-01-11T03:28:38;5.10;;;2.80;;
65753;SDS011;69207;47.502;18.940;2024-01-11T03:29:41;4.07;;;2.60;;
65753;SDS011;69207;47.502;18.940;2024-01-11T03:30:44;4.35;;;2.67;;
65753;SDS011;69207;47.502;18.940;2024-01-11T03:31:47;5.20;;;2.85;;
65753;SDS011;69207;47.502;18.940;2024-01-11T03:32:49;5.45;;;2.42;;
65753;SDS011;69207;47.502;18.940;2024-01-11T03:33:53;5.47;;;3.08;;
65753;SDS011;69207;47.502;18.940;2024-01-11T03:34:56;6.20;;;2.75;;
65753;SDS011;69207;47.502;18.940;2024-01-11T03:35:59;3.65;;;2.42;;
65753;SDS011;69207;47.502;18.940;2024-01-11T03:37:02;5.57;;;3.00;;
65753;SDS011;69207;47.502;18.940;2024-01-11T03:38:05;4.93;;;2.72;;
65753;SDS011;69207;47.502;18.940;2024-01-11T03:39:09;6.97;;;2.97;;
65753;SDS011;69207;47.502;18.940;2024-01-11T03:40:12;7.85;;;3.60;;
65753;SDS011;69207;47.502;18.940;2024-01-11T03:41:16;5.57;;;3.12;;
65753;SDS011;69207;47.502;18.940;2024-01-11T03:42:19;5.07;;;2.80;;
65753;SDS011;69207;47.502;18.940;2024-01-11T03:43:22;5.03;;;2.95;;
65753;SDS011;69207;47.502;18.940;2024-01-11T03:44:25;4.78;;;2.72;;
65753;SDS011;69207;47.502;18.940;2024-01-11T03:45:28;7.30;;;3.75;;
65753;SDS011;69207;47.502;18.940;2024-01-11T03:46:31;6.57;;;3.30;;
65753;SDS011;69207;47.502;18.940;2024-01-11T03:47:34;6.93;;;3.47;;
65753;SDS011;69207;47.502;18.940;2024-01-11T03:48:37;5.97;;;2.90;;
65753;SDS011;69207;47.502;18.940;2024-01-11T03:49:41;7.18;;;3.72;;
65753;SDS011;69207;47.502;18.940;2024-01-11T03:50:44;5.78;;;3.28;;
65753;SDS011;69207;47.502;18.940;2024-01-11T03:51:47;8.82;;;3.28;;
65753;SDS011;69207;47.502;18.940;2024-01-11T03:52:50;7.62;;;3.95;;
65753;SDS011;69207;47.502;18.940;2024-01-11T03:53:53;6.70;;;3.47;;
65753;SDS011;69207;47.502;18.940;2024-01-11T03:54:56;5.15;;;2.75;;
65753;SDS011;69207;47.502;18.940;2024-01-11T03:55:59;6.85;;;3.50;;
65753;SDS011;69207;47.502;18.940;2024-01-11T03:57:02;7.47;;;3.70;;
65753;SDS011;69207;47.502;18.940;2024-01-11T03:58:06;7.97;;;4.00;;
65753;SDS011;69207;47.502;18.940;2024-01-11T03:59:10;5.70;;;3.35;;
65753;SDS011;69207;47.502;18.940;2024-01-11T04:00:13;8.07;;;3.75;;
65753;SDS011;69207;47.502;18.940;2024-01-11T04:01:17;7.57;;;3.85;;
65753;SDS011;69207;47.502;18.940;2024-01-11T04:02:20;8.38;;;3.67;;
65753;SDS011;69207;47.502;18.940;2024-01-11T04:03:23;6.70;;;3.53;;
65753;SDS011;69207;47.502;18.940;2024-01-11T04:04:27;8.45;;;3.65;;
65753;SDS011;69207;47.502;18.940;2024-01-11T04:05:30;7.68;;;4.00;;
65753;SDS011;69207;47.502;18.940;2024-01-11T04:06:33;8.30;;;4.12;;
65753;SDS011;69207;47.502;18.940;2024-01-11T04:07:36;7.95;;;4.15;;
65753;SDS011;69207;47.502;18.940;2024-01-11T04:08:39;7.85;;;3.92;;
65753;SDS011;69207;47.502;18.940;2024-01-11T04:09:42;5.93;;;3.50;;
65753;SDS011;69207;47.502;18.940;2024-01-11T04:10:46;7.68;;;4.00;;
65753;SDS011;69207;47.502;18.940;2024-01-11T04:11:49;9.45;;;4.47;;
65753;SDS011;69207;47.502;18.940;2024-01-11T04:12:52;8.40;;;4.22;;
65753;SDS011;69207;47.502;18.940;2024-01-11T04:13:55;10.10;;;4.70;;
65753;SDS011;69207;47.502;18.940;2024-01-11T04:14:58;9.23;;;4.35;;
65753;SDS011;69207;47.502;18.940;2024-01-11T04:16:04;10.70;;;4.75;;
65753;SDS011;69207;47.502;18.940;2024-01-11T04:17:08;8.65;;;4.70;;
65753;SDS011;69207;47.502;18.940;2024-01-11T04:18:11;8.43;;;4.43;;
65753;SDS011;69207;47.502;18.940;2024-01-11T04:19:14;10.52;;;4.60;;
65753;SDS011;69207;47.502;18.940;2024-01-11T04:20:19;8.77;;;4.30;;
65753;SDS011;69207;47.502;18.940;2024-01-11T04:21:22;9.75;;;4.43;;
65753;SDS011;69207;47.502;18.940;2024-01-11T04:22:27;10.82;;;4.65;;
65753;SDS011;69207;47.502;18.940;2024-01-11T04:23:31;9.98;;;4.87;;
65753;SDS011;69207;47.502;18.940;2024-01-11T04:24:34;10.95;;;4.60;;
65753;SDS011;69207;47.502;18.940;2024-01-11T04:25:37;8.38;;;4.80;;
65753;SDS011;69207;47.502;18.940;2024-01-11T04:26:40;11.07;;;5.55;;
65753;SDS011;69207;47.502;18.940;2024-01-11T04:27:43;10.00;;;4.47;;
65753;SDS011;69207;47.502;18.940;2024-01-11T04:28:48;9.95;;;4.68;;
65753;SDS011;69207;47.502;18.940;2024-01-11T04:29:53;9.82;;;4.82;;
65753;SDS011;69207;47.502;18.940;2024-01-11T04:30:57;9.75;;;4.68;;
65753;SDS011;69207;47.502;18.940;2024-01-11T04:32:00;7.40;;;4.35;;
65753;SDS011;69207;47.502;18.940;2024-01-11T04:33:05;9.23;;;4.87;;
65753;SDS011;69207;47.502;18.940;2024-01-11T04:34:08;8.90;;;4.70;;
65753;SDS011;69207;47.502;18.940;2024-01-11T04:35:11;9.23;;;4.70;;
65753;SDS011;69207;47.502;18.940;2024-01-11T04:36:15;10.45;;;4.32;;
65753;SDS011;69207;47.502;18.940;2024-01-11T04:37:18;10.02;;;4.65;;
65753;SDS011;69207;47.502;18.940;2024-01-11T04:38:22;8.77;;;4.60;;
65753;SDS011;69207;47.502;18.940;2024-01-11T04:39:24;10.57;;;4.47;;
65753;SDS011;69207;47.502;18.940;2024-01-11T04:40:27;9.75;;;4.82;;
65753;SDS011;69207;47.502;18.940;2024-01-11T04:41:30;8.60;;;4.50;;
65753;SDS011;69207;47.502;18.940;2024-01-11T04:42:34;8.90;;;4.20;;
65753;SDS011;69207;47.502;18.940;2024-01-11T04:44:44;7.68;;;3.78;;
65753;SDS011;69207;47.502;18.940;2024-01-11T04:45:47;9.18;;;4.37;;
65753;SDS011;69207;47.502;18.940;2024-01-11T04:46:50;7.65;;;3.50;;
65753;SDS011;69207;47.502;18.940;2024-01-11T04:47:53;9.38;;;4.10;;
65753;SDS011;69207;47.502;18.940;2024-01-11T04:48:56;7.60;;;4.22;;
65753;SDS011;69207;47.502;18.940;2024-01-11T04:50:00;7.28;;;3.55;;
65753;SDS011;69207;47.502;18.940;2024-01-11T04:51:03;6.90;;;3.42;;
65753;SDS011;69207;47.502;18.940;2024-01-11T04:52:06;7.72;;;3.65;;
65753;SDS011;69207;47.502;18.940;2024-01-11T04:53:11;4.72;;;3.15;;
65753;SDS011;69207;47.502;18.940;2024-01-11T04:54:14;8.38;;;4.10;;
65753;SDS011;69207;47.502;18.940;2024-01-11T04:55:17;6.62;;;3.60;;
65753;SDS011;69207;47.502;18.940;2024-01-11T04:56:20;6.72;;;4.00;;
65753;SDS011;69207;47.502;18.940;2024-01-11T04:57:23;7.18;;;3.85;;
65753;SDS011;69207;47.502;18.940;2024-01-11T04:58:26;7.45;;;3.80;;
65753;SDS011;69207;47.502;18.940;2024-01-11T04:59:29;6.22;;;3.62;;
65753;SDS011;69207;47.502;18.940;2024-01-11T05:00:32;5.62;;;3.00;;
65753;SDS011;69207;47.502;18.940;2024-01-11T05:01:35;6.00;;;3.25;;
65753;SDS011;69207;47.502;18.940;2024-01-11T05:02:39;6.85;;;3.80;;
65753;SDS011;69207;47.502;18.940;2024-01-11T05:03:42;6.53;;;3.20;;
65753;SDS011;69207;47.502;18.940;2024-01-11T05:04:47;5.60;;;2.97;;
65753;SDS011;69207;47.502;18.940;2024-01-11T05:05:50;7.18;;;3.53;;
65753;SDS011;69207;47.502;18.940;2024-01-11T05:06:53;8.05;;;3.87;;
65753;SDS011;69207;47.502;18.940;2024-01-11T05:07:57;6.10;;;3.40;;
65753;SDS011;69207;47.502;18.940;2024-01-11T05:09:00;8.60;;;3.78;;
65753;SDS011;69207;47.502;18.940;2024-01-11T05:10:03;5.57;;;3.33;;
65753;SDS011;69207;47.502;18.940;2024-01-11T05:11:07;9.48;;;4.15;;
65753;SDS011;69207;47.502;18.940;2024-01-11T05:12:10;6.97;;;3.90;;
65753;SDS011;69207;47.502;18.940;2024-01-11T05:13:14;9.50;;;3.87;;
65753;SDS011;69207;47.502;18.940;2024-01-11T05:14:17;9.25;;;4.37;;
65753;SDS011;69207;47.502;18.940;2024-01-11T05:15:20;9.13;;;3.58;;
65753;SDS011;69207;47.502;18.940;2024-01-11T05:16:25;8.88;;;3.90;;
65753;SDS011;69207;47.502;18.940;2024-01-11T05:17:28;6.65;;;3.80;;
65753;SDS011;69207;47.502;18.940;2024-01-11T05:18:32;9.95;;;5.12;;
65753;SDS011;69207;47.502;18.940;2024-01-11T05:19:37;8.75;;;4.32;;
65753;SDS011;69207;47.502;18.940;2024-01-11T05:20:40;10.65;;;4.37;;
65753;SDS011;69207;47.502;18.940;2024-01-11T05:21:44;10.25;;;5.37;;
65753;SDS011;69207;47.502;18.940;2024-01-11T05:22:47;9.38;;;4.78;;
65753;SDS011;69207;47.502;18.940;2024-01-11T05:23:50;10.18;;;5.28;;
65753;SDS011;69207;47.502;18.940;2024-01-11T05:24:53;9.43;;;4.95;;
65753;SDS011;69207;47.502;18.940;2024-01-11T05:25:56;12.80;;;6.00;;
65753;SDS011;69207;47.502;18.940;2024-01-11T05:27:00;11.05;;;5.57;;
65753;SDS011;69207;47.502;18.940;2024-01-11T05:28:03;9.82;;;5.22;;
65753;SDS011;69207;47.502;18.940;2024-01-11T05:29:06;9.35;;;4.70;;
65753;SDS011;69207;47.502;18.940;2024-01-11T05:30:10;11.35;;;5.78;;
65753;SDS011;69207;47.502;18.940;2024-01-11T05:31:14;10.85;;;5.70;;
65753;SDS011;69207;47.502;18.940;2024-01-11T05:32:19;12.68;;;6.30;;
65753;SDS011;69207;47.502;18.940;2024-01-11T05:33:23;10.63;;;5.75;;
65753;SDS011;69207;47.502;18.940;2024-01-11T05:34:26;12.80;;;6.35;;
65753;SDS011;69207;47.502;18.940;2024-01-11T05:35:29;14.23;;;6.05;;
65753;SDS011;69207;47.502;18.940;2024-01-11T05:36:33;12.45;;;5.80;;
65753;SDS011;69207;47.502;18.940;2024-01-11T05:37:36;13.48;;;5.55;;
65753;SDS011;69207;47.502;18.940;2024-01-11T05:38:39;13.52;;;6.47;;
65753;SDS011;69207;47.502;18.940;2024-01-11T05:39:43;13.35;;;6.32;;
65753;SDS011;69207;47.502;18.940;2024-01-11T05:40:46;14.95;;;6.50;;
65753;SDS011;69207;47.502;18.940;2024-01-11T05:41:49;10.40;;;5.57;;
65753;SDS011;69207;47.502;18.940;2024-01-11T05:42:53;12.93;;;6.82;;
65753;SDS011;69207;47.502;18.940;2024-01-11T05:43:56;17.23;;;7.03;;
65753;SDS011;69207;47.502;18.940;2024-01-11T05:44:59;15.30;;;6.25;;
65753;SDS011;69207;47.502;18.940;2024-01-11T05:46:02;13.85;;;6.15;;
65753;SDS011;69207;47.502;18.940;2024-01-11T05:47:06;13.50;;;6.80;;
65753;SDS011;69207;47.502;18.940;2024-01-11T05:48:10;13.85;;;6.30;;
65753;SDS011;69207;47.502;18.940;2024-01-11T05:49:14;11.65;;;6.43;;
65753;SDS011;69207;47.502;18.940;2024-01-11T05:50:17;14.05;;;5.70;;
65753;SDS011;69207;47.502;18.940;2024-01-11T05:51:21;11.98;;;6.25;;
65753;SDS011;69207;47.502;18.940;2024-01-11T05:52:24;14.23;;;6.60;;
65753;SDS011;69207;47.502;18.940;2024-01-11T05:53:27;14.15;;;6.62;;
65753;SDS011;69207;47.502;18.940;2024-01-11T05:54:31;15.48;;;6.47;;
65753;SDS011;69207;47.502;18.940;2024-01-11T05:55:34;13.90;;;5.78;;
65753;SDS011;69207;47.502;18.940;2024-01-11T05:56:37;14.50;;;6.25;;
65753;SDS011;69207;47.502;18.940;2024-01-11T05:57:41;13.07;;;6.28;;
65753;SDS011;69207;47.502;18.940;2024-01-11T05:58:44;13.02;;;5.87;;
65753;SDS011;69207;47.502;18.940;2024-01-11T05:59:47;14.18;;;6.43;;
65753;SDS011;69207;47.502;18.940;2024-01-11T06:00:49;12.73;;;6.30;;
65753;SDS011;69207;47.502;18.940;2024-01-11T06:01:53;13.88;;;6.65;;
65753;SDS011;69207;47.502;18.940;2024-01-11T06:02:56;12.18;;;5.72;;
65753;SDS011;69207;47.502;18.940;2024-01-11T06:03:59;13.00;;;5.95;;
65753;SDS011;69207;47.502;18.940;2024-01-11T06:05:02;11.85;;;5.78;;
65753;SDS011;69207;47.502;18.940;2024-01-11T06:06:06;14.73;;;6.78;;
65753;SDS011;69207;47.502;18.940;2024-01-11T06:07:11;13.85;;;6.18;;
65753;SDS011;69207;47.502;18.940;2024-01-11T06:08:14;15.00;;;7.05;;
65753;SDS011;69207;47.502;18.940;2024-01-11T06:09:17;19.55;;;8.70;;
65753;SDS011;69207;47.502;18.940;2024-01-11T06:10:20;17.70;;;7.93;;
65753;SDS011;69207;47.502;18.940;2024-01-11T06:11:24;16.45;;;7.45;;
65753;SDS011;69207;47.502;18.940;2024-01-11T06:12:27;17.02;;;7.65;;
65753;SDS011;69207;47.502;18.940;2024-01-11T06:13:30;17.75;;;7.55;;
65753;SDS011;69207;47.502;18.940;2024-01-11T06:14:33;15.75;;;7.22;;
65753;SDS011;69207;47.502;18.940;2024-01-11T06:15:36;15.50;;;8.00;;